Accueil
METAR-TAF:

METAR-TAF

Aéroports :

Aéroport Sultan Abdul Halim

Alor Setar, Malaisie

latitude: 06-11-40N, longitude: 100-24-03E, altitude: 5 m

Observation

Le bulletin a été fait il y a 44 minutes, à 20:00 UTC
Vent 2 kt de direction variable
Température 26°C
Humidité 89%
Pression 1007 hPa
Visibilité 10 km ou plus
Quelques nuages à une hauteur de 3000 ft

METAR: WMKA 242000Z VRB02KT 9999 FEW030 26/24 Q1007

Heure: 04:44 (20:44 UTC)

Prévision

Le bulletin a été fait il y a 3 heures et 44 minutes, à 17:00 UTC
Prévision valable du 24 à 18 UTC au 25 à 18 UTC
Vent 3 kt de direction variable
Visibilité 10 km ou plus
Quelques nuages à une hauteur de 2800 ft

TAF: WMKA 241700Z 2418/2518 VRB03KT 9999 FEW028

Observations et prévisions météorologiques de plus de 4000 aéroports (messages METAR et TAF).

Les stations disponibles sont représentées par des disques jaunes et rouges sur la carte.

Passer la souris dessus pour voir le nom de la station.

Cliquer dessus pour voir les observations et prévisions météorologiques.

Pour changer de carte: cliquez sur les boutons verts avec une croix noire pour zoomer, sur le bouton vert avec un tiret pour effectuer un zoom arrière, ou sur les flèches vertes pour les cartes adjacentes.


METAR-TAF: